createdAt,value
2023-03-27T00:00:22.291Z,24.81
2023-03-27T00:04:22.233Z,24.83
2023-03-27T00:08:22.281Z,24.85
2023-03-27T00:12:22.368Z,24.86
2023-03-27T00:16:22.368Z,24.90
2023-03-27T00:20:22.277Z,24.92
2023-03-27T00:24:22.243Z,24.96
2023-03-27T00:28:22.248Z,24.96
2023-03-27T00:32:22.148Z,25.00
2023-03-27T00:36:22.116Z,25.00
2023-03-27T00:40:22.222Z,25.05
2023-03-27T00:44:22.236Z,25.02
2023-03-27T00:48:22.199Z,25.05
2023-03-27T00:52:22.103Z,25.05
2023-03-27T00:56:22.119Z,25.03
2023-03-27T01:00:22.106Z,25.06
2023-03-27T01:04:21.974Z,25.02
2023-03-27T01:08:22.257Z,25.05
2023-03-27T01:12:22.123Z,25.06
2023-03-27T01:16:22.330Z,25.03
2023-03-27T01:20:22.067Z,25.05
2023-03-27T01:24:22.051Z,25.06
2023-03-27T01:28:21.976Z,25.03
2023-03-27T01:32:22.198Z,25.03
2023-03-27T01:36:22.048Z,25.05
2023-03-27T01:40:21.991Z,25.06
2023-03-27T01:44:21.956Z,25.06
2023-03-27T01:48:21.978Z,25.05
2023-03-27T01:52:21.916Z,25.06
2023-03-27T01:56:21.927Z,25.05
2023-03-27T02:00:21.962Z,25.03
2023-03-27T02:04:22.058Z,25.06
2023-03-27T02:08:21.993Z,25.05
2023-03-27T02:12:21.966Z,25.06
2023-03-27T02:16:21.946Z,25.05
2023-03-27T02:20:21.860Z,25.05
2023-03-27T02:24:21.784Z,25.05
2023-03-27T02:28:21.696Z,25.03
2023-03-27T02:32:21.773Z,25.03
2023-03-27T02:36:21.840Z,25.02
2023-03-27T02:40:21.929Z,25.03
2023-03-27T02:44:22.017Z,25.05
2023-03-27T02:48:22.085Z,25.03
2023-03-27T02:52:22.334Z,25.03
2023-03-27T02:56:22.365Z,25.05
2023-03-27T03:00:22.577Z,25.00
2023-03-27T03:04:22.767Z,25.03
2023-03-27T03:08:22.995Z,25.03
2023-03-27T03:12:23.150Z,25.02
2023-03-27T03:16:23.345Z,25.02
2023-03-27T03:20:23.467Z,25.03
2023-03-27T03:24:23.671Z,25.02
2023-03-27T03:28:23.836Z,25.05
2023-03-27T03:32:23.910Z,25.05
2023-03-27T03:36:23.779Z,25.07
2023-03-27T03:40:23.792Z,25.10
2023-03-27T03:44:23.708Z,25.10
2023-03-27T03:48:23.646Z,25.13
2023-03-27T03:52:23.601Z,25.16
2023-03-27T03:56:23.752Z,25.20
2023-03-27T04:00:23.927Z,25.23
2023-03-27T04:04:24.097Z,25.24
2023-03-27T04:08:24.295Z,25.26
2023-03-27T04:12:24.501Z,25.26
2023-03-27T04:16:24.745Z,25.30
2023-03-27T04:20:24.879Z,25.29
2023-03-27T04:24:25.088Z,25.32
2023-03-27T04:28:25.289Z,25.34
2023-03-27T04:32:25.501Z,25.36
2023-03-27T04:36:25.789Z,25.34
2023-03-27T04:40:25.780Z,25.37
2023-03-27T04:44:25.988Z,25.38
2023-03-27T04:48:26.113Z,25.37
2023-03-27T04:52:26.285Z,25.38
2023-03-27T04:56:26.443Z,25.41
2023-03-27T05:00:26.626Z,25.41
2023-03-27T05:04:26.758Z,25.44
2023-03-27T05:08:27.150Z,25.44
2023-03-27T05:12:27.060Z,25.41
2023-03-27T05:16:27.678Z,25.37
2023-03-27T05:20:27.646Z,25.34
2023-03-27T05:24:27.638Z,25.32
2023-03-27T05:28:28.148Z,25.30
2023-03-27T05:32:28.214Z,25.27
2023-03-27T05:36:28.028Z,25.23
2023-03-27T05:40:28.239Z,25.23
2023-03-27T05:44:28.164Z,25.23
2023-03-27T05:48:28.209Z,25.22
2023-03-27T05:52:28.594Z,25.30
2023-03-27T05:56:28.216Z,25.29
2023-03-27T06:00:28.179Z,25.26
2023-03-27T06:04:31.452Z,25.26
2023-03-27T06:08:28.179Z,25.23
2023-03-27T06:12:27.697Z,25.24
2023-03-27T06:16:27.760Z,25.27
2023-03-27T06:20:27.860Z,25.32
2023-03-27T06:24:28.158Z,25.32
2023-03-27T06:28:28.226Z,25.30
2023-03-27T06:32:27.794Z,25.29
2023-03-27T06:36:27.780Z,25.32
2023-03-27T06:40:27.493Z,25.29
2023-03-27T06:44:27.677Z,25.26
2023-03-27T06:48:27.697Z,25.23
2023-03-27T06:52:27.703Z,25.22
2023-03-27T06:56:27.672Z,25.20
2023-03-27T07:00:27.197Z,25.20
2023-03-27T07:04:27.680Z,25.20
2023-03-27T07:08:27.918Z,25.22
2023-03-27T07:12:27.134Z,25.17
2023-03-27T07:16:27.283Z,25.17
2023-03-27T07:20:27.186Z,25.12
2023-03-27T07:24:27.702Z,25.13
2023-03-27T07:28:27.683Z,25.16
2023-03-27T07:32:36.794Z,25.16
2023-03-27T07:36:27.178Z,25.20
2023-03-27T07:40:38.947Z,25.24
2023-03-27T07:48:26.186Z,25.36
2023-03-27T07:52:27.200Z,25.38
2023-03-27T07:56:27.220Z,25.44
2023-03-27T08:00:27.569Z,25.48
2023-03-27T08:04:27.363Z,25.52
2023-03-27T08:08:27.057Z,25.57
2023-03-27T08:12:26.762Z,25.62
2023-03-27T08:16:26.779Z,25.68
2023-03-27T08:20:26.701Z,25.72
2023-03-27T08:24:26.699Z,25.77
2023-03-27T08:28:26.774Z,25.78
2023-03-27T08:32:26.733Z,25.82
2023-03-27T08:36:26.713Z,25.81
2023-03-27T08:40:26.709Z,25.81
2023-03-27T08:44:26.757Z,25.86
2023-03-27T08:48:26.706Z,25.86
2023-03-27T08:52:26.749Z,25.86
2023-03-27T08:56:26.874Z,25.91
2023-03-27T09:00:27.420Z,25.89
2023-03-27T09:04:26.698Z,25.95
2023-03-27T09:08:26.719Z,25.96
2023-03-27T09:12:26.798Z,25.97
2023-03-27T09:16:26.776Z,26.02
2023-03-27T09:20:26.730Z,26.06
2023-03-27T09:24:26.720Z,26.10
2023-03-27T09:28:26.735Z,26.10
2023-03-27T09:36:26.517Z,26.15
2023-03-27T09:40:27.719Z,26.15
2023-03-27T09:44:26.733Z,26.15
2023-03-27T09:48:26.754Z,26.19
2023-03-27T09:52:26.124Z,26.23
2023-03-27T09:56:26.019Z,26.22
2023-03-27T10:00:25.936Z,26.26
2023-03-27T10:04:26.274Z,26.29
2023-03-27T10:08:27.380Z,26.30
2023-03-27T10:12:25.774Z,26.33
2023-03-27T10:16:25.796Z,26.34
2023-03-27T10:20:25.773Z,26.30
2023-03-27T10:24:25.375Z,26.24
2023-03-27T10:28:25.752Z,26.12
2023-03-27T10:32:25.776Z,25.93
2023-03-27T10:36:25.290Z,25.95
2023-03-27T10:40:25.132Z,26.00
2023-03-27T10:44:25.713Z,26.13
2023-03-27T10:48:25.265Z,26.22
2023-03-27T10:52:28.529Z,26.32
2023-03-27T10:56:24.765Z,26.39
2023-03-27T11:00:24.580Z,26.40
2023-03-27T11:04:24.789Z,26.46
2023-03-27T11:08:24.994Z,26.50
2023-03-27T11:12:24.770Z,26.52
2023-03-27T11:16:24.315Z,26.52
2023-03-27T11:20:26.321Z,26.44
2023-03-27T11:24:24.797Z,26.39
2023-03-27T11:28:24.264Z,26.36
2023-03-27T11:32:24.263Z,26.29
2023-03-27T11:36:24.676Z,26.23
2023-03-27T11:40:23.820Z,26.17
2023-03-27T11:44:23.770Z,26.07
2023-03-27T11:48:23.776Z,26.02
2023-03-27T11:52:23.785Z,26.03
2023-03-27T11:56:23.804Z,26.07
2023-03-27T12:00:23.830Z,26.15
2023-03-27T12:04:23.880Z,26.23
2023-03-27T12:08:23.790Z,26.33
2023-03-27T12:12:23.811Z,26.39
2023-03-27T12:16:23.303Z,26.39
2023-03-27T12:20:23.288Z,26.43
2023-03-27T12:24:23.290Z,26.44
2023-03-27T12:28:23.908Z,26.51
2023-03-27T12:32:23.826Z,26.54
2023-03-27T12:36:23.286Z,26.51
2023-03-27T12:40:23.550Z,26.54
2023-03-27T12:44:23.317Z,26.58
2023-03-27T12:48:22.977Z,26.57
2023-03-27T12:52:23.302Z,26.55
2023-03-27T12:56:22.803Z,26.58
2023-03-27T13:00:22.819Z,26.58
2023-03-27T13:04:22.803Z,26.55
2023-03-27T13:08:22.365Z,26.57
2023-03-27T13:12:22.810Z,26.54
2023-03-27T13:16:22.883Z,26.57
2023-03-27T13:20:22.306Z,26.60
2023-03-27T13:24:22.195Z,26.61
2023-03-27T13:28:22.316Z,26.62
2023-03-27T13:32:22.397Z,26.64
2023-03-27T13:36:22.413Z,26.60
2023-03-27T13:40:22.013Z,26.60
2023-03-27T13:44:22.322Z,26.60
2023-03-27T13:48:22.102Z,26.61
2023-03-27T13:52:21.691Z,26.62
2023-03-27T13:56:21.823Z,26.65
2023-03-27T14:00:21.818Z,26.62
2023-03-27T14:04:21.352Z,26.65
2023-03-27T14:08:21.345Z,26.64
2023-03-27T14:12:21.325Z,26.65
2023-03-27T14:16:20.963Z,26.65
2023-03-27T14:20:20.879Z,26.65
2023-03-27T14:24:20.850Z,26.64
2023-03-27T14:28:20.847Z,26.64
2023-03-27T14:32:20.702Z,26.58
2023-03-27T14:36:20.910Z,26.55
2023-03-27T14:40:20.842Z,26.48
2023-03-27T14:44:20.400Z,26.33
2023-03-27T14:48:20.413Z,26.23
2023-03-27T14:52:20.171Z,26.15
2023-03-27T14:56:20.133Z,26.09
2023-03-27T15:00:19.950Z,25.97
2023-03-27T15:04:20.584Z,25.92
2023-03-27T15:08:18.832Z,25.88
2023-03-27T15:12:19.943Z,25.85
2023-03-27T15:16:19.923Z,25.88
2023-03-27T15:20:19.885Z,25.91
2023-03-27T15:24:19.509Z,25.93
2023-03-27T15:28:19.851Z,25.95
2023-03-27T15:32:19.284Z,25.95
2023-03-27T15:36:19.209Z,25.92
2023-03-27T15:40:19.604Z,25.91
2023-03-27T15:44:18.981Z,25.91
2023-03-27T15:48:19.402Z,25.89
2023-03-27T15:52:18.853Z,25.88
2023-03-27T15:56:18.726Z,25.86
2023-03-27T16:00:18.567Z,25.85
2023-03-27T16:04:18.773Z,25.81
2023-03-27T16:08:18.411Z,25.78
2023-03-27T16:12:18.517Z,25.79
2023-03-27T16:16:18.399Z,25.78
2023-03-27T16:20:18.311Z,25.72
2023-03-27T16:24:18.369Z,25.72
2023-03-27T16:28:18.726Z,25.71
2023-03-27T16:32:18.464Z,25.71
2023-03-27T16:36:18.488Z,25.69
2023-03-27T16:40:18.465Z,25.67
2023-03-27T16:45:48.478Z,25.68
2023-03-27T16:50:03.566Z,25.65
2023-03-27T16:53:49.400Z,25.67
2023-03-27T16:57:49.394Z,25.67
2023-03-27T17:01:49.440Z,25.62
2023-03-27T17:05:49.411Z,25.62
2023-03-27T17:09:49.381Z,25.62
2023-03-27T17:13:49.383Z,25.60
2023-03-27T17:17:49.469Z,25.60
2023-03-27T17:21:49.434Z,25.58
2023-03-27T17:25:49.385Z,25.58
2023-03-27T17:29:49.392Z,25.57
2023-03-27T17:33:49.393Z,25.55
2023-03-27T17:37:49.378Z,25.57
2023-03-27T17:41:49.379Z,25.55
2023-03-27T17:45:49.371Z,25.58
2023-03-27T17:49:49.386Z,25.55
2023-03-27T17:53:49.373Z,25.54
2023-03-27T17:58:01.998Z,25.54
2023-03-27T18:01:49.502Z,25.52
2023-03-27T18:05:49.405Z,25.51
2023-03-27T18:09:49.381Z,25.51
2023-03-27T18:13:49.388Z,25.51
2023-03-27T18:17:49.452Z,25.50
2023-03-27T18:21:49.422Z,25.51
2023-03-27T18:25:49.396Z,25.48
2023-03-27T18:29:49.409Z,25.48
2023-03-27T18:33:49.432Z,25.50
2023-03-27T18:37:49.461Z,25.45
2023-03-27T18:41:49.456Z,25.47
2023-03-27T18:45:49.523Z,25.48
2023-03-27T18:49:49.524Z,25.47
2023-03-27T18:53:49.647Z,25.45
2023-03-27T18:57:49.676Z,25.45
2023-03-27T19:01:49.798Z,25.47
2023-03-27T19:05:49.867Z,25.45
2023-03-27T19:09:49.922Z,25.43
2023-03-27T19:13:49.975Z,25.43
2023-03-27T19:17:50.116Z,25.44
2023-03-27T19:21:50.208Z,25.44
2023-03-27T19:25:50.277Z,25.41
2023-03-27T19:29:50.385Z,25.43
2023-03-27T19:33:50.471Z,25.41
2023-03-27T19:37:50.521Z,25.43
2023-03-27T19:41:50.639Z,25.43
2023-03-27T19:45:53.054Z,25.44
2023-03-27T19:49:50.682Z,25.40
2023-03-27T19:53:50.713Z,25.38
2023-03-27T19:57:50.696Z,25.41
2023-03-27T20:01:50.715Z,25.43
2023-03-27T20:05:50.679Z,25.41
2023-03-27T20:09:50.697Z,25.43
2023-03-27T20:13:56.609Z,25.41
2023-03-27T20:17:50.687Z,25.41
2023-03-27T20:21:50.635Z,25.38
2023-03-27T20:25:50.639Z,25.40
2023-03-27T20:29:50.636Z,25.40
2023-03-27T20:33:50.641Z,25.38
2023-03-27T20:37:50.651Z,25.38
2023-03-27T20:41:50.649Z,25.37
2023-03-27T20:45:50.637Z,25.38
2023-03-27T20:49:50.602Z,25.38
2023-03-27T20:53:50.598Z,25.38
2023-03-27T20:57:50.593Z,25.37
2023-03-27T21:01:50.690Z,25.37
2023-03-27T21:05:50.720Z,25.34
2023-03-27T21:09:50.893Z,25.37
2023-03-27T21:13:51.052Z,25.34
2023-03-27T21:17:51.397Z,25.37
2023-03-27T21:21:51.399Z,25.36
2023-03-27T21:25:51.568Z,25.37
2023-03-27T21:29:51.726Z,25.38
2023-03-27T21:33:51.937Z,25.37
2023-03-27T21:37:52.089Z,25.37
2023-03-27T21:41:52.258Z,25.34
2023-03-27T21:45:52.479Z,25.36
2023-03-27T21:49:52.626Z,25.37
2023-03-27T21:53:52.750Z,25.36
2023-03-27T21:57:52.902Z,25.33
2023-03-27T22:01:53.135Z,25.36
2023-03-27T22:06:07.921Z,25.33
2023-03-27T22:09:53.293Z,25.34
2023-03-27T22:13:53.247Z,25.34
2023-03-27T22:17:53.291Z,25.34
2023-03-27T22:21:53.306Z,25.32
2023-03-27T22:25:53.310Z,25.34
2023-03-27T22:29:53.309Z,25.33
2023-03-27T22:33:53.324Z,25.34
2023-03-27T22:37:53.362Z,25.33
2023-03-27T22:41:53.361Z,25.33
2023-03-27T22:45:53.384Z,25.34
2023-03-27T22:49:53.467Z,25.32
2023-03-27T22:53:53.676Z,25.32
2023-03-27T22:57:53.826Z,25.29
2023-03-27T23:01:54.130Z,25.33
2023-03-27T23:05:54.134Z,25.36
